createdAt,value
2023-01-05T00:01:36.375Z,100861.53
2023-01-05T00:04:04.560Z,100873.13
2023-01-05T00:06:32.560Z,100861.88
2023-01-05T00:09:00.339Z,100851.59
2023-01-05T00:11:46.125Z,100850.19
2023-01-05T00:14:32.620Z,100844.69
2023-01-05T00:17:19.199Z,100847.34
2023-01-05T00:20:04.580Z,100845.31
2023-01-05T00:22:35.143Z,100852.50
2023-01-05T00:25:11.133Z,100854.97
2023-01-05T00:27:40.283Z,100857.16
2023-01-05T00:30:09.114Z,100848.16
2023-01-05T00:32:38.056Z,100850.28
2023-01-05T00:35:06.470Z,100847.63
2023-01-05T00:37:35.227Z,100830.66
2023-01-05T00:40:03.479Z,100826.69
2023-01-05T00:42:31.093Z,100823.34
2023-01-05T00:44:58.692Z,100820.84
2023-01-05T00:47:26.272Z,100819.38
2023-01-05T00:49:55.195Z,100810.09
2023-01-05T00:52:22.710Z,100807.63
2023-01-05T00:54:50.677Z,100796.31
2023-01-05T00:57:18.336Z,100796.81
2023-01-05T00:59:45.893Z,100795.25
2023-01-05T01:02:13.786Z,100797.16
2023-01-05T01:04:41.670Z,100799.63
2023-01-05T01:07:10.546Z,100801.47
2023-01-05T01:09:39.022Z,100808.38
2023-01-05T01:12:06.587Z,100804.59
2023-01-05T01:14:34.135Z,100817.00
2023-01-05T01:17:01.743Z,100825.16
2023-01-05T01:19:29.403Z,100825.69
2023-01-05T01:21:56.891Z,100832.66
2023-01-05T01:24:27.424Z,100825.75
2023-01-05T01:26:55.169Z,100824.44
2023-01-05T01:29:23.497Z,100830.63
2023-01-05T01:31:52.681Z,100833.03
2023-01-05T01:34:20.459Z,100829.16
2023-01-05T01:36:48.334Z,100823.22
2023-01-05T01:39:16.157Z,100828.06
2023-01-05T01:41:45.142Z,100821.25
2023-01-05T01:44:51.373Z,100828.22
2023-01-05T01:47:23.590Z,100830.19
2023-01-05T01:49:51.467Z,100819.84
2023-01-05T01:52:19.528Z,100832.19
2023-01-05T01:54:47.968Z,100831.84
2023-01-05T01:57:17.139Z,100826.63
2023-01-05T01:59:44.692Z,100828.81
2023-01-05T02:02:14.009Z,100839.66
2023-01-05T02:04:41.870Z,100837.81
2023-01-05T02:07:11.403Z,100842.97
2023-01-05T02:09:39.088Z,100841.16
2023-01-05T02:12:12.947Z,100843.09
2023-01-05T02:14:49.118Z,100832.44
2023-01-05T02:17:25.827Z,100819.13
2023-01-05T02:20:38.283Z,100828.78
2023-01-05T02:23:31.728Z,100830.00
2023-01-05T02:26:21.666Z,100814.16
2023-01-05T02:29:10.468Z,100804.69
2023-01-05T02:31:41.131Z,100820.13
2023-01-05T02:34:15.849Z,100824.09
2023-01-05T02:36:50.085Z,100836.09
2023-01-05T02:39:19.457Z,100827.94
2023-01-05T02:41:49.960Z,100839.06
2023-01-05T02:44:18.827Z,100849.59
2023-01-05T02:46:48.002Z,100840.00
2023-01-05T02:49:16.430Z,100834.94
2023-01-05T02:51:48.053Z,100838.47
2023-01-05T02:54:19.106Z,100829.53
2023-01-05T02:56:51.377Z,100842.84
2023-01-05T02:59:20.842Z,100840.13
2023-01-05T03:01:53.083Z,100842.97
2023-01-05T03:04:23.486Z,100840.97
2023-01-05T03:06:56.389Z,100838.19
2023-01-05T03:09:26.083Z,100837.06
2023-01-05T03:12:16.206Z,100849.06
2023-01-05T03:14:46.436Z,100854.19
2023-01-05T03:17:18.674Z,100858.59
2023-01-05T03:19:47.029Z,100852.56
2023-01-05T03:22:34.762Z,100862.38
2023-01-05T03:25:20.437Z,100869.06
2023-01-05T03:28:06.232Z,100866.25
2023-01-05T03:30:57.600Z,100882.75
2023-01-05T03:33:49.838Z,100872.59
2023-01-05T03:36:19.675Z,100884.44
2023-01-05T03:38:48.248Z,100890.53
2023-01-05T03:41:17.046Z,100904.03
2023-01-05T03:43:44.620Z,100904.38
2023-01-05T03:46:15.262Z,100906.59
2023-01-05T03:48:44.200Z,100916.13
2023-01-05T03:51:11.747Z,100906.00
2023-01-05T03:53:39.230Z,100904.28
2023-01-05T03:56:07.266Z,100894.66
2023-01-05T03:58:34.796Z,100899.84
2023-01-05T04:01:02.390Z,100893.22
2023-01-05T04:03:32.119Z,100888.22
2023-01-05T04:06:01.648Z,100885.69
2023-01-05T04:08:29.103Z,100899.19
2023-01-05T04:10:57.110Z,100904.03
2023-01-05T04:13:25.002Z,100898.84
2023-01-05T04:15:52.518Z,100902.66
2023-01-05T04:18:20.046Z,100909.47
2023-01-05T04:20:47.508Z,100898.78
2023-01-05T04:23:16.320Z,100912.47
2023-01-05T04:25:43.809Z,100914.44
2023-01-05T04:28:11.263Z,100911.78
2023-01-05T04:30:38.753Z,100909.13
2023-01-05T04:33:06.219Z,100911.75
2023-01-05T04:35:33.714Z,100915.38
2023-01-05T04:38:01.173Z,100928.75
2023-01-05T04:40:30.033Z,100928.09
2023-01-05T04:42:57.489Z,100928.09
2023-01-05T04:45:24.969Z,100932.00
2023-01-05T04:47:52.750Z,100930.88
2023-01-05T04:50:20.341Z,100931.56
2023-01-05T04:52:47.806Z,100929.44
2023-01-05T04:55:15.343Z,100925.97
2023-01-05T04:57:44.161Z,100930.13
2023-01-05T05:00:12.201Z,100929.78
2023-01-05T05:02:39.962Z,100932.13
2023-01-05T05:05:07.910Z,100946.44
2023-01-05T05:07:35.570Z,100952.41
2023-01-05T05:10:03.450Z,100950.56
2023-01-05T05:12:31.112Z,100959.72
2023-01-05T05:14:59.942Z,100963.22
2023-01-05T05:17:27.429Z,100968.03
2023-01-05T05:19:54.880Z,100968.72
2023-01-05T05:22:22.439Z,100979.47
2023-01-05T05:24:49.906Z,100977.69
2023-01-05T05:27:17.369Z,100983.00
2023-01-05T05:29:44.837Z,100983.34
2023-01-05T05:32:13.628Z,100981.97
2023-01-05T05:34:41.160Z,100979.03
2023-01-05T05:37:08.703Z,100981.16
2023-01-05T05:39:36.178Z,100979.16
2023-01-05T05:42:03.664Z,100985.31
2023-01-05T05:44:31.139Z,100986.47
2023-01-05T05:46:58.747Z,100992.16
2023-01-05T05:49:27.542Z,100990.50
2023-01-05T05:51:55.011Z,100992.97
2023-01-05T05:54:22.489Z,100994.78
2023-01-05T05:56:49.964Z,100998.09
2023-01-05T05:59:17.466Z,100995.44
2023-01-05T06:01:45.004Z,100999.66
2023-01-05T06:04:12.620Z,101002.78
2023-01-05T06:06:41.445Z,101007.47
2023-01-05T06:09:08.882Z,101002.44
2023-01-05T06:11:36.454Z,101021.06
2023-01-05T06:14:04.449Z,101027.56
2023-01-05T06:16:31.949Z,101026.91
2023-01-05T06:18:59.476Z,101033.03
2023-01-05T06:21:27.075Z,101031.72
2023-01-05T06:23:55.915Z,101013.94
2023-01-05T06:26:23.467Z,101034.72
2023-01-05T06:28:50.994Z,101024.75
2023-01-05T06:31:18.564Z,101024.75
2023-01-05T06:33:46.080Z,101028.91
2023-01-05T06:36:13.624Z,101045.38
2023-01-05T06:38:41.149Z,101038.38
2023-01-05T06:41:09.975Z,101039.88
2023-01-05T06:43:37.555Z,101039.88
2023-01-05T06:46:05.225Z,101044.19
2023-01-05T06:48:32.701Z,101044.03
2023-01-05T06:51:00.213Z,101045.34
2023-01-05T06:53:27.749Z,101045.84
2023-01-05T06:55:55.335Z,101040.38
2023-01-05T06:58:24.447Z,101045.69
2023-01-05T07:00:51.957Z,101036.56
2023-01-05T07:03:19.431Z,101044.84
2023-01-05T07:05:46.919Z,101047.22
2023-01-05T07:08:14.425Z,101052.19
2023-01-05T07:10:41.883Z,101053.34
2023-01-05T07:13:09.419Z,101057.69
2023-01-05T07:15:38.323Z,101057.00
2023-01-05T07:18:05.852Z,101056.69
2023-01-05T07:20:33.367Z,101065.16
2023-01-05T07:23:00.862Z,101067.31
2023-01-05T07:25:31.399Z,101061.50
2023-01-05T07:27:59.120Z,101071.50
2023-01-05T07:30:26.663Z,101069.66
2023-01-05T07:32:58.769Z,101080.44
2023-01-05T07:35:26.265Z,101073.78
2023-01-05T07:37:53.770Z,101087.09
2023-01-05T07:40:21.252Z,101098.41
2023-01-05T07:42:51.530Z,101082.16
2023-01-05T07:45:19.174Z,101097.09
2023-01-05T07:47:46.700Z,101096.09
2023-01-05T07:50:15.643Z,101106.72
2023-01-05T07:52:43.124Z,101106.41
2023-01-05T07:55:11.031Z,101102.06
2023-01-05T07:57:38.509Z,101112.34
2023-01-05T08:00:07.358Z,101105.09
2023-01-05T08:02:36.179Z,101119.38
2023-01-05T08:05:03.975Z,101114.38
2023-01-05T08:07:32.850Z,101120.38
2023-01-05T08:10:17.811Z,101117.22
2023-01-05T08:12:59.227Z,101132.38
2023-01-05T08:15:26.782Z,101143.50
2023-01-05T08:17:54.288Z,101146.31
2023-01-05T08:20:21.781Z,101154.00
2023-01-05T08:22:52.601Z,101158.66
2023-01-05T08:25:20.319Z,101148.31
2023-01-05T08:27:48.474Z,101156.47
2023-01-05T08:30:16.062Z,101152.97
2023-01-05T08:32:43.762Z,101155.81
2023-01-05T08:35:11.328Z,101157.97
2023-01-05T08:37:39.535Z,101155.81
2023-01-05T08:40:10.593Z,101166.63
2023-01-05T08:42:38.067Z,101149.81
2023-01-05T08:45:06.457Z,101157.97
2023-01-05T08:47:33.924Z,101163.78
2023-01-05T08:50:01.440Z,101151.59
2023-01-05T08:52:28.921Z,101172.91
2023-01-05T08:54:56.401Z,101166.56
2023-01-05T08:57:25.193Z,101163.25
2023-01-05T08:59:52.674Z,101165.25
2023-01-05T09:02:25.568Z,101172.91
2023-01-05T09:04:53.685Z,101181.41
2023-01-05T09:07:22.309Z,101179.25
2023-01-05T09:09:49.817Z,101189.69
2023-01-05T09:12:17.333Z,101192.50
2023-01-05T09:14:46.407Z,101194.69
2023-01-05T09:17:13.933Z,101194.50
2023-01-05T09:19:41.421Z,101189.66
2023-01-05T09:22:08.934Z,101177.97
2023-01-05T09:24:36.432Z,101177.78
2023-01-05T09:27:05.469Z,101193.78
2023-01-05T09:29:32.938Z,101189.13
2023-01-05T09:32:01.765Z,101185.09
2023-01-05T09:34:29.577Z,101190.94
2023-01-05T09:36:57.056Z,101186.56
2023-01-05T09:39:24.635Z,101202.72
2023-01-05T09:41:54.031Z,101188.06
2023-01-05T09:44:28.857Z,101190.03
2023-01-05T09:46:58.151Z,101185.69
2023-01-05T09:49:27.462Z,101195.34
2023-01-05T09:51:59.004Z,101191.97
2023-01-05T09:54:28.764Z,101201.00
2023-01-05T09:57:12.353Z,101214.47
2023-01-05T09:59:42.170Z,101212.81
2023-01-05T10:02:17.987Z,101219.31
2023-01-05T10:04:48.031Z,101223.47
2023-01-05T10:07:20.784Z,101220.28
2023-01-05T10:09:48.905Z,101217.44
2023-01-05T10:12:42.783Z,101221.13
2023-01-05T10:15:13.862Z,101222.28
2023-01-05T10:17:43.736Z,101226.31
2023-01-05T10:20:25.264Z,101219.00
2023-01-05T10:23:00.873Z,101233.13
2023-01-05T10:25:35.903Z,101230.78
2023-01-05T10:28:15.478Z,101235.94
2023-01-05T10:30:53.526Z,101237.13
2023-01-05T10:33:38.914Z,101238.78
2023-01-05T10:36:41.393Z,101234.28
2023-01-05T10:39:19.636Z,101228.22
2023-01-05T10:41:51.695Z,101227.22
2023-01-05T10:44:36.185Z,101238.06
2023-01-05T10:47:04.011Z,101238.09
2023-01-05T10:49:32.439Z,101242.22
2023-01-05T10:52:02.408Z,101246.88
2023-01-05T10:54:37.074Z,101246.44
2023-01-05T10:57:36.276Z,101239.56
2023-01-05T11:00:09.111Z,101232.25
2023-01-05T11:02:38.387Z,101228.25
2023-01-05T11:05:08.480Z,101238.94
2023-01-05T11:07:48.160Z,101233.63
2023-01-05T11:10:24.290Z,101233.44
2023-01-05T11:12:53.396Z,101251.25
2023-01-05T11:15:21.684Z,101250.41
2023-01-05T11:17:49.326Z,101247.50
2023-01-05T11:20:17.967Z,101246.09
2023-01-05T11:22:48.326Z,101254.34
2023-01-05T11:25:21.199Z,101245.13
2023-01-05T11:28:05.932Z,101246.25
2023-01-05T11:30:33.908Z,101247.78
2023-01-05T11:33:01.670Z,101248.38
2023-01-05T11:35:32.640Z,101247.06
2023-01-05T11:38:02.035Z,101255.72
2023-01-05T11:40:31.610Z,101254.06
2023-01-05T11:43:00.127Z,101256.91
2023-01-05T11:45:29.216Z,101262.06
2023-01-05T11:47:58.586Z,101255.72
2023-01-05T11:50:27.872Z,101247.78
2023-01-05T11:52:56.624Z,101255.06
2023-01-05T11:55:31.016Z,101251.22
2023-01-05T11:58:17.575Z,101258.03
2023-01-05T12:01:08.309Z,101254.72
2023-01-05T12:03:52.851Z,101259.66
2023-01-05T12:06:31.791Z,101254.13
2023-01-05T12:09:03.408Z,101258.63
2023-01-05T12:11:37.489Z,101252.69
2023-01-05T12:14:13.995Z,101262.44
2023-01-05T12:16:47.122Z,101250.91
2023-01-05T12:19:37.330Z,101255.44
2023-01-05T12:22:24.621Z,101244.81
2023-01-05T12:25:02.745Z,101249.81
2023-01-05T12:27:47.346Z,101258.09
2023-01-05T12:32:07.221Z,101255.16
2023-01-05T12:36:22.492Z,101259.25
2023-01-05T12:39:00.258Z,101253.59
2023-01-05T12:41:51.576Z,101256.41
2023-01-05T12:44:34.388Z,101256.25
2023-01-05T12:47:13.643Z,101259.53
2023-01-05T12:49:45.319Z,101252.28
2023-01-05T12:52:16.338Z,101252.53
2023-01-05T12:54:48.300Z,101257.91
2023-01-05T12:57:18.985Z,101263.06
2023-01-05T12:59:54.030Z,101272.16
2023-01-05T13:02:29.367Z,101271.03
2023-01-05T13:05:00.787Z,101265.88
2023-01-05T13:07:33.586Z,101264.97
2023-01-05T13:10:03.899Z,101274.50
2023-01-05T13:12:32.950Z,101268.97
2023-01-05T13:15:13.097Z,101270.38
2023-01-05T13:17:44.026Z,101266.50
2023-01-05T13:20:23.245Z,101270.84
2023-01-05T13:22:52.638Z,101271.56
2023-01-05T13:25:22.053Z,101271.75
2023-01-05T13:27:49.531Z,101266.50
2023-01-05T13:30:23.440Z,101277.97
2023-01-05T13:33:01.828Z,101269.78
2023-01-05T13:35:46.102Z,101266.84
2023-01-05T13:38:32.991Z,101268.91
2023-01-05T13:41:15.093Z,101261.38
2023-01-05T13:44:04.773Z,101262.81
2023-01-05T13:46:43.065Z,101257.09
2023-01-05T13:49:23.801Z,101267.88
2023-01-05T13:51:54.779Z,101268.06
2023-01-05T13:54:43.634Z,101254.47
2023-01-05T13:57:21.810Z,101256.53
2023-01-05T14:00:00.773Z,101266.75
2023-01-05T14:02:38.566Z,101271.47
2023-01-05T14:05:08.005Z,101268.09
2023-01-05T14:07:40.483Z,101269.41
2023-01-05T14:10:21.221Z,101278.19
2023-01-05T14:12:50.103Z,101278.69
2023-01-05T14:15:36.422Z,101281.41
2023-01-05T14:18:05.846Z,101286.75
2023-01-05T14:20:37.144Z,101290.91
2023-01-05T14:23:45.621Z,101291.34
2023-01-05T14:26:14.474Z,101304.38
2023-01-05T14:28:49.030Z,101298.59
2023-01-05T14:31:36.808Z,101301.50
2023-01-05T14:34:07.507Z,101310.72
2023-01-05T14:36:37.656Z,101307.78
2023-01-05T14:39:07.809Z,101323.97
2023-01-05T14:41:36.860Z,101321.53
2023-01-05T14:44:06.267Z,101325.16
2023-01-05T14:46:46.654Z,101323.41
2023-01-05T14:49:21.101Z,101326.22
2023-01-05T14:51:54.331Z,101330.53
2023-01-05T14:54:37.085Z,101337.41
2023-01-05T14:57:35.808Z,101328.56
2023-01-05T15:00:08.501Z,101334.94
2023-01-05T15:02:45.831Z,101335.75
2023-01-05T15:05:17.247Z,101339.59
2023-01-05T15:07:50.277Z,101337.91
2023-01-05T15:10:24.439Z,101340.44
2023-01-05T15:15:48.054Z,101344.59
2023-01-05T15:18:55.156Z,101345.59
2023-01-05T15:21:37.686Z,101343.13
2023-01-05T15:24:34.387Z,101348.59
2023-01-05T15:27:28.120Z,101351.41
2023-01-05T15:30:10.102Z,101355.72
2023-01-05T15:32:41.691Z,101349.25
2023-01-05T15:35:15.174Z,101360.56
2023-01-05T15:37:47.205Z,101357.09
2023-01-05T15:40:29.189Z,101357.94
2023-01-05T15:42:58.785Z,101351.75
2023-01-05T15:45:29.805Z,101351.09
2023-01-05T15:48:00.410Z,101348.94
2023-01-05T15:50:32.615Z,101350.75
2023-01-05T15:53:01.846Z,101355.91
2023-01-05T15:55:30.814Z,101352.28
2023-01-05T15:58:00.479Z,101349.28
2023-01-05T16:00:31.059Z,101346.78
2023-01-05T16:02:58.850Z,101346.94
2023-01-05T16:05:28.012Z,101347.28
2023-01-05T16:07:57.735Z,101351.44
2023-01-05T16:10:29.840Z,101352.78
2023-01-05T16:13:00.851Z,101348.97
2023-01-05T16:15:33.223Z,101340.31
2023-01-05T16:18:00.990Z,101354.44
2023-01-05T16:20:30.854Z,101358.09
2023-01-05T16:23:08.398Z,101349.63
2023-01-05T16:25:40.805Z,101361.44
2023-01-05T16:28:17.068Z,101359.09
2023-01-05T16:30:47.115Z,101357.28
2023-01-05T16:33:27.327Z,101358.09
2023-01-05T16:36:08.434Z,101358.78
2023-01-05T16:38:36.064Z,101354.63
2023-01-05T16:41:10.065Z,101356.28
2023-01-05T16:43:43.550Z,101359.97
2023-01-05T16:46:36.316Z,101353.47
2023-01-05T16:49:37.338Z,101351.94
2023-01-05T16:52:08.780Z,101355.81
2023-01-05T16:54:39.401Z,101353.94
2023-01-05T16:57:30.959Z,101354.59
2023-01-05T16:59:58.902Z,101351.13
2023-01-05T17:02:45.118Z,101359.75
2023-01-05T17:05:15.533Z,101354.59
2023-01-05T17:07:44.407Z,101352.94
2023-01-05T17:10:23.495Z,101357.25
2023-01-05T17:13:01.312Z,101358.94
2023-01-05T17:15:32.782Z,101362.91
2023-01-05T17:18:02.146Z,101368.75
2023-01-05T17:20:36.229Z,101362.47
2023-01-05T17:23:04.078Z,101355.28
2023-01-05T17:25:34.207Z,101361.06
2023-01-05T17:28:01.696Z,101360.59
2023-01-05T17:30:29.261Z,101363.22
2023-01-05T17:32:56.828Z,101359.03
2023-01-05T17:35:25.683Z,101357.66
2023-01-05T17:37:53.194Z,101359.84
2023-01-05T17:40:21.900Z,101363.81
2023-01-05T17:42:49.480Z,101361.16
2023-01-05T17:45:18.773Z,101360.16
2023-01-05T17:47:47.157Z,101357.50
2023-01-05T17:50:16.657Z,101362.28
2023-01-05T17:52:45.486Z,101363.09
2023-01-05T17:55:13.660Z,101360.84
2023-01-05T17:57:42.284Z,101358.50
2023-01-05T18:00:13.246Z,101366.13
2023-01-05T18:02:41.283Z,101363.78
2023-01-05T18:05:10.397Z,101361.50
2023-01-05T18:07:38.747Z,101364.78
2023-01-05T18:10:10.021Z,101360.28
2023-01-05T18:12:37.885Z,101356.84
2023-01-05T18:15:06.388Z,101356.50
2023-01-05T18:20:08.058Z,101367.34
2023-01-05T18:22:35.928Z,101352.50
2023-01-05T18:25:03.666Z,101346.41
2023-01-05T18:27:35.394Z,101346.53
2023-01-05T18:30:03.419Z,101350.06
2023-01-05T18:35:07.329Z,101350.91
2023-01-05T18:37:38.042Z,101340.88
2023-01-05T18:40:07.029Z,101343.34
2023-01-05T18:42:36.524Z,101331.41
2023-01-05T18:45:13.840Z,101337.38
2023-01-05T18:47:47.625Z,101339.56
2023-01-05T18:50:15.538Z,101340.69
2023-01-05T18:52:46.612Z,101338.72
2023-01-05T18:55:14.241Z,101340.59
2023-01-05T18:57:43.373Z,101341.09
2023-01-05T19:00:12.284Z,101343.56
2023-01-05T19:02:40.762Z,101338.25
2023-01-05T19:05:08.986Z,101344.19
2023-01-05T19:07:38.065Z,101339.16
2023-01-05T19:10:06.110Z,101342.53
2023-01-05T19:12:33.772Z,101345.16
2023-01-05T19:15:02.732Z,101340.16
2023-01-05T19:17:33.446Z,101340.31
2023-01-05T19:20:01.001Z,101345.53
2023-01-05T19:22:28.861Z,101340.84
2023-01-05T19:24:56.963Z,101342.38
2023-01-05T19:27:24.588Z,101339.88
2023-01-05T19:29:52.122Z,101339.88
2023-01-05T19:32:21.005Z,101335.38
2023-01-05T19:34:48.661Z,101337.38
2023-01-05T19:37:16.432Z,101332.53
2023-01-05T19:39:44.152Z,101329.53
2023-01-05T19:42:11.809Z,101341.78
2023-01-05T19:44:39.462Z,101338.16
2023-01-05T19:47:07.196Z,101337.03
2023-01-05T19:49:36.410Z,101341.84
2023-01-05T19:52:04.050Z,101342.31
2023-01-05T19:54:31.677Z,101336.97
2023-01-05T19:56:59.330Z,101333.50
2023-01-05T19:59:33.101Z,101336.53
2023-01-05T20:02:01.689Z,101331.81
2023-01-05T20:04:29.335Z,101334.47
2023-01-05T20:06:58.679Z,101338.16
2023-01-05T20:09:26.615Z,101332.84
2023-01-05T20:12:02.639Z,101326.06
2023-01-05T20:14:31.821Z,101324.41
2023-01-05T20:17:01.647Z,101324.06
2023-01-05T20:19:31.749Z,101324.88
2023-01-05T20:22:01.922Z,101321.53
2023-01-05T20:24:31.096Z,101323.25
2023-01-05T20:27:00.618Z,101330.06
2023-01-05T20:29:29.177Z,101316.53
2023-01-05T20:32:00.153Z,101315.91
2023-01-05T20:34:31.982Z,101319.56
2023-01-05T20:37:01.768Z,101322.22
2023-01-05T20:39:29.359Z,101316.41
2023-01-05T20:41:57.003Z,101317.59
2023-01-05T20:44:26.857Z,101314.28
2023-01-05T20:46:57.203Z,101320.94
2023-01-05T20:49:26.142Z,101318.66
2023-01-05T20:51:54.061Z,101320.09
2023-01-05T20:54:26.152Z,101319.63
2023-01-05T20:56:53.965Z,101307.09
2023-01-05T20:59:24.760Z,101316.63
2023-01-05T21:01:52.905Z,101318.66
2023-01-05T21:04:21.050Z,101322.44
2023-01-05T21:06:48.820Z,101327.81
2023-01-05T21:09:16.505Z,101322.47
2023-01-05T21:11:46.493Z,101327.16
2023-01-05T21:14:14.799Z,101321.66
2023-01-05T21:16:48.360Z,101327.31
2023-01-05T21:19:18.710Z,101327.66
2023-01-05T21:21:47.472Z,101330.31
2023-01-05T21:24:15.831Z,101330.94
2023-01-05T21:26:45.347Z,101324.28
2023-01-05T21:29:14.114Z,101331.91
2023-01-05T21:31:41.804Z,101329.91
2023-01-05T21:34:11.418Z,101326.16
2023-01-05T21:36:41.318Z,101332.22
2023-01-05T21:39:09.925Z,101327.91
2023-01-05T21:41:55.935Z,101327.59
2023-01-05T21:44:25.102Z,101326.97
2023-01-05T21:46:52.729Z,101320.06
2023-01-05T21:49:20.853Z,101321.94
2023-01-05T21:52:06.110Z,101320.31
2023-01-05T21:54:54.588Z,101315.81
2023-01-05T21:57:22.168Z,101318.28
2023-01-05T21:59:51.263Z,101313.25
2023-01-05T22:02:18.927Z,101306.25
2023-01-05T22:04:46.957Z,101302.97
2023-01-05T22:07:14.598Z,101302.94
2023-01-05T22:09:42.162Z,101297.69
2023-01-05T22:12:10.193Z,101301.31
2023-01-05T22:14:38.070Z,101297.63
2023-01-05T22:17:08.294Z,101294.81
2023-01-05T22:19:35.957Z,101291.19
2023-01-05T22:22:03.945Z,101291.50
2023-01-05T22:24:31.563Z,101289.84
2023-01-05T22:26:59.338Z,101290.34
2023-01-05T22:29:27.006Z,101289.47
2023-01-05T22:31:54.785Z,101289.53
2023-01-05T22:34:23.793Z,101289.31
2023-01-05T22:36:51.536Z,101279.19
2023-01-05T22:39:19.160Z,101277.97
2023-01-05T22:41:47.315Z,101280.16
2023-01-05T22:44:14.882Z,101283.31
2023-01-05T22:46:42.649Z,101279.78
2023-01-05T22:49:13.236Z,101288.84
2023-01-05T22:51:42.584Z,101274.00
2023-01-05T22:54:10.232Z,101269.50
2023-01-05T22:56:38.014Z,101280.78
2023-01-05T22:59:05.912Z,101281.66
2023-01-05T23:01:35.078Z,101266.69
2023-01-05T23:04:04.900Z,101261.19
2023-01-05T23:06:32.701Z,101266.78
2023-01-05T23:09:02.339Z,101274.31
2023-01-05T23:11:31.843Z,101268.66
2023-01-05T23:14:00.737Z,101265.97
2023-01-05T23:16:29.023Z,101257.31
2023-01-05T23:18:56.944Z,101257.47
2023-01-05T23:21:27.041Z,101255.03
2023-01-05T23:23:56.093Z,101253.03
2023-01-05T23:26:26.688Z,101252.72
2023-01-05T23:28:55.141Z,101252.41
2023-01-05T23:31:23.128Z,101249.25
2023-01-05T23:33:50.800Z,101244.91
2023-01-05T23:36:19.766Z,101236.44
2023-01-05T23:38:47.666Z,101241.38
2023-01-05T23:41:16.296Z,101236.25
2023-01-05T23:43:46.084Z,101224.75
2023-01-05T23:46:16.332Z,101224.44
2023-01-05T23:48:44.621Z,101216.63
2023-01-05T23:51:14.370Z,101218.47
2023-01-05T23:53:42.393Z,101212.31
2023-01-05T23:56:12.392Z,101217.44
2023-01-05T23:58:40.384Z,101220.28
